首页
METAR-TAF:

METAR-TAF

机场 :

Fort Huachuca / Sierra Vista, 亞利桑那州, 美国

纬度: 31-35N, 经度: 110-20W, 海拔: 1438米

当前天气观测

该预报发布于11分钟前的15:04 UTC
风速15节,风向西
温度 7°C
湿度 93%
气压 1021 hPa
阴天层高于5500英尺
小雨

METAR: KFHU 211504Z AUTO 26015KT M -RA OVC055 07/06 A3016 RMK AO2 RAE03RAB04 SLP184 $

时间: 08:15 (15:15 UTC)

预报

该预报发布于1小时和42分钟前的13:33 UTC
预报有效从21日的 13点(UTC)到 22日的 16点(UTC)
风速14节,风向西
能见度10公里或以上
阴天层高于3000英尺
成为
从 21日的 14点(UTC)到 21日的 15点(UTC)
风速14节,风向西
能見度: 8000
阴天层高于1000英尺
小阵雨
短暂存在
从 21日的 15点(UTC)到 21日的 19点(UTC)
风速15节,风向西,有时为25节阵风
成为
从 21日的 19点(UTC)到 21日的 20点(UTC)
风速6节,风向多变
能见度10公里或以上
阴天层高于1000英尺
附近有阵雨
成为
从 22日的 03点(UTC)到 22日的 04点(UTC)
风速6节,风向多变
能见度10公里或以上
阴天层高于2000英尺

TAF: KFHU 211333Z 2113/2216 27014KT 9999 OVC030 QNH3010INS BECMG 2114/2115 27014KT 8000 -SHRA OVC010 QNH3015INS TEMPO 2115/2119 27015G25KT BECMG 2119/2120 VRB06KT 9999 VCSH OVC010 QNH3008INS BECMG 2203/2204 VRB06KT 9999 NSW OVC020 QNH3012INS TX12/2121Z TN08/2115Z

超过4000个机场的气象观测和天气预报(METAR&TAF报告)。

可查询的气象台以黄色和红色小点在地图上表示。

将鼠标移到小点上方,可查看气象台名称。

然后点击查看天气观测和预报。

如需切换地图:点击带黑十字的绿色按钮放大地图;点击带横线的绿色按钮缩小地图;或者点击绿色箭头查看邻近地区的地图。


METAR-TAF: